Time;durP1;ratioP1;P1;durP2;ratioP2;P2;SDS_P1;SDS_P2;PMS_P1;PMS_P2;Temp;Humidity;BMP_temperature;BMP_pressure;BME280_temperature;BME280_humidity;BME280_pressure;Samples;Min_cycle;Max_cycle;Signal;HPM_P1;HPM_P2
2020/12/07 00:00:42;;;;;;;90.83;61.00;;;3.70;99.90;;;;;;4966451;28;20459;-75
2020/12/07 00:03:08;;;;;;;105.33;62.20;;;3.70;99.90;;;;;;4960848;28;20482;-75
2020/12/07 00:05:36;;;;;;;93.53;58.43;;;3.70;99.90;;;;;;4961411;28;20459;-74
2020/12/07 00:08:03;;;;;;;75.67;55.70;;;3.80;99.90;;;;;;4969253;28;20930;-75
2020/12/07 00:10:31;;;;;;;90.13;57.47;;;3.70;99.90;;;;;;4968521;28;20977;-75
2020/12/07 00:12:58;;;;;;;81.80;55.93;;;3.70;99.90;;;;;;4968366;28;20471;-74
2020/12/07 00:15:25;;;;;;;77.90;52.10;;;3.70;99.90;;;;;;4968057;28;20460;-75
2020/12/07 00:17:53;;;;;;;78.30;53.27;;;3.70;99.90;;;;;;4969211;28;20466;-75
2020/12/07 00:20:20;;;;;;;81.63;55.13;;;3.70;99.90;;;;;;4968994;28;20470;-74
2020/12/07 00:22:46;;;;;;;82.00;55.27;;;3.70;99.90;;;;;;4968016;28;20463;-75
2020/12/07 00:25:12;;;;;;;74.40;52.93;;;3.70;99.90;;;;;;4967938;28;20571;-75
2020/12/07 00:27:39;;;;;;;76.03;56.40;;;3.70;99.90;;;;;;4968165;28;20491;-75
2020/12/07 00:30:07;;;;;;;73.90;54.80;;;3.70;99.90;;;;;;4968574;28;20475;-76
2020/12/07 00:32:34;;;;;;;73.80;52.50;;;3.70;99.90;;;;;;4967861;28;20455;-74
2020/12/07 00:35:01;;;;;;;88.07;57.50;;;3.70;99.90;;;;;;4967124;28;20464;-75
2020/12/07 00:37:28;;;;;;;83.07;53.90;;;3.70;99.90;;;;;;4967775;28;20589;-75
2020/12/07 00:39:55;;;;;;;74.40;55.70;;;3.70;99.90;;;;;;4967433;28;20469;-75
2020/12/07 00:42:21;;;;;;;91.43;55.60;;;3.60;99.90;;;;;;4967679;28;20463;-76
2020/12/07 00:44:48;;;;;;;81.77;56.83;;;3.70;99.90;;;;;;4967185;28;20499;-74
2020/12/07 00:47:14;;;;;;;71.53;53.40;;;3.70;99.90;;;;;;4971640;28;20452;-75
2020/12/07 00:49:41;;;;;;;74.73;56.37;;;3.60;99.90;;;;;;4967577;28;20464;-73
2020/12/07 00:52:08;;;;;;;82.80;57.10;;;3.60;99.90;;;;;;4967355;28;21072;-75
2020/12/07 00:54:34;;;;;;;81.30;59.83;;;3.60;99.90;;;;;;4967210;28;20470;-75
2020/12/07 00:57:01;;;;;;;76.77;59.10;;;3.60;99.90;;;;;;4966552;28;20467;-75
2020/12/07 00:59:29;;;;;;;65.17;51.70;;;3.70;99.90;;;;;;4968035;28;20972;-74
2020/12/07 01:01:57;;;;;;;74.97;53.70;;;3.70;99.90;;;;;;4967033;28;20475;-76
2020/12/07 01:04:24;;;;;;;77.47;55.30;;;3.70;99.90;;;;;;4966274;28;20981;-75
2020/12/07 01:06:50;;;;;;;75.97;55.77;;;3.70;99.90;;;;;;4966965;28;20491;-76
2020/12/07 01:09:17;;;;;;;79.10;57.87;;;3.70;99.90;;;;;;4967280;28;20455;-77
2020/12/07 01:11:45;;;;;;;72.40;51.47;;;3.60;99.90;;;;;;4966596;28;21089;-75
2020/12/07 01:14:12;;;;;;;87.17;53.87;;;3.60;99.90;;;;;;4968786;28;20498;-74
2020/12/07 01:16:39;;;;;;;73.73;55.57;;;3.60;99.90;;;;;;4966377;28;20462;-75
2020/12/07 01:19:08;;;;;;;69.70;52.63;;;3.70;99.90;;;;;;4964912;28;20823;-76
2020/12/07 01:21:35;;;;;;;75.03;56.57;;;3.60;99.90;;;;;;4966895;28;20558;-76
2020/12/07 01:24:02;;;;;;;76.03;53.40;;;3.60;99.90;;;;;;4967224;28;21046;-74
2020/12/07 01:26:30;;;;;;;90.77;58.20;;;3.60;99.90;;;;;;4967769;28;20850;-75
2020/12/07 01:28:57;;;;;;;76.60;56.10;;;3.60;99.90;;;;;;4967086;28;20459;-75
2020/12/07 01:31:23;;;;;;;83.57;57.73;;;3.60;99.90;;;;;;4966808;28;20463;-75
2020/12/07 01:33:49;;;;;;;79.67;57.30;;;3.60;99.90;;;;;;4965937;28;20459;-75
2020/12/07 01:36:17;;;;;;;82.67;59.33;;;3.60;99.90;;;;;;4960994;28;20488;-75
2020/12/07 01:38:43;;;;;;;86.13;59.70;;;3.60;99.90;;;;;;4965952;28;20463;-76
2020/12/07 01:41:10;;;;;;;85.57;60.87;;;3.50;99.90;;;;;;4966247;28;20495;-75
2020/12/07 01:43:36;;;;;;;98.10;60.90;;;3.60;99.90;;;;;;4967850;28;20887;-75
2020/12/07 01:46:06;;;;;;;89.10;60.70;;;3.60;99.90;;;;;;4964570;28;20490;-75
2020/12/07 01:48:33;;;;;;;103.03;65.20;;;3.50;99.90;;;;;;4964757;28;20462;-77
2020/12/07 01:51:00;;;;;;;97.87;65.77;;;3.50;99.90;;;;;;4966838;28;20486;-74
2020/12/07 01:53:28;;;;;;;102.10;64.73;;;3.50;99.90;;;;;;4968525;28;21000;-75
2020/12/07 01:55:54;;;;;;;103.47;63.07;;;3.50;99.90;;;;;;4965272;28;20483;-74
2020/12/07 01:58:21;;;;;;;105.17;65.63;;;3.40;99.90;;;;;;4966482;28;20459;-75
2020/12/07 02:00:47;;;;;;;104.13;66.57;;;3.40;99.90;;;;;;4966017;28;20467;-75
2020/12/07 02:03:14;;;;;;;109.50;68.40;;;3.40;99.90;;;;;;4962462;28;21036;-75
2020/12/07 02:05:41;;;;;;;102.27;69.90;;;3.40;99.90;;;;;;4965244;28;20466;-75
2020/12/07 02:08:15;;;;;;;100.63;64.77;;;3.40;99.90;;;;;;4967119;28;20555;-76
2020/12/07 02:10:43;;;;;;;113.80;66.40;;;3.40;99.90;;;;;;4965665;28;20503;-76
2020/12/07 02:13:10;;;;;;;119.57;69.70;;;3.30;99.90;;;;;;4966103;28;20468;-74
2020/12/07 02:15:37;;;;;;;110.60;67.73;;;3.40;99.90;;;;;;4965752;28;20585;-76
2020/12/07 02:18:05;;;;;;;98.37;61.03;;;3.30;99.90;;;;;;4965971;28;20475;-75
2020/12/07 02:20:33;;;;;;;115.80;67.77;;;3.30;99.90;;;;;;4966421;28;20466;-74
2020/12/07 02:22:59;;;;;;;89.67;58.90;;;3.30;99.90;;;;;;4965818;28;20451;-75
2020/12/07 02:25:26;;;;;;;101.07;60.90;;;3.20;99.90;;;;;;4965896;28;20466;-76
2020/12/07 02:27:53;;;;;;;122.57;67.27;;;3.20;99.90;;;;;;4965594;28;20575;-75
2020/12/07 02:30:20;;;;;;;107.27;66.20;;;3.20;99.90;;;;;;4966793;28;20962;-74
2020/12/07 02:32:48;;;;;;;104.73;62.10;;;3.30;99.90;;;;;;4966249;28;20733;-76
2020/12/07 02:35:16;;;;;;;109.00;62.73;;;3.30;99.90;;;;;;4965193;28;20495;-75
2020/12/07 02:37:45;;;;;;;105.50;62.17;;;3.30;99.90;;;;;;4963178;28;20719;-77
2020/12/07 02:40:12;;;;;;;101.97;61.87;;;3.30;99.90;;;;;;4965856;28;20497;-75
2020/12/07 02:42:40;;;;;;;104.07;65.03;;;3.30;99.90;;;;;;4964985;28;20494;-75
2020/12/07 02:45:09;;;;;;;105.87;60.30;;;3.30;99.90;;;;;;4965231;28;20505;-75
2020/12/07 02:47:36;;;;;;;106.13;63.93;;;3.20;99.90;;;;;;4961319;28;20464;-75
2020/12/07 02:50:03;;;;;;;106.77;59.80;;;3.30;99.90;;;;;;4963810;28;20464;-74
2020/12/07 02:52:30;;;;;;;102.73;58.80;;;3.20;99.90;;;;;;4968190;28;20971;-75
2020/12/07 02:55:00;;;;;;;96.93;58.50;;;3.30;99.90;;;;;;4968359;28;20463;-76
2020/12/07 02:57:27;;;;;;;113.57;66.10;;;3.20;99.90;;;;;;4969306;28;20462;-76
2020/12/07 02:59:54;;;;;;;100.97;61.97;;;3.20;99.90;;;;;;4969224;28;20586;-74
2020/12/07 03:02:21;;;;;;;107.00;60.37;;;3.30;99.90;;;;;;4973478;28;20459;-74
2020/12/07 03:04:48;;;;;;;121.57;64.00;;;3.20;99.90;;;;;;4969005;28;20564;-74
2020/12/07 03:07:15;;;;;;;111.97;63.80;;;3.20;99.90;;;;;;4968984;28;20946;-76
2020/12/07 03:09:42;;;;;;;120.20;65.00;;;3.20;99.90;;;;;;4969179;28;20481;-76
2020/12/07 03:12:09;;;;;;;113.30;63.80;;;3.20;99.90;;;;;;4965612;28;20467;-74
2020/12/07 03:14:37;;;;;;;139.93;65.67;;;3.20;99.90;;;;;;4969793;28;20471;-76
2020/12/07 03:17:04;;;;;;;128.83;70.90;;;3.20;99.90;;;;;;4967137;28;20479;-75
2020/12/07 03:19:30;;;;;;;126.83;68.37;;;3.20;99.90;;;;;;4969208;28;20477;-75
2020/12/07 03:21:57;;;;;;;87.87;52.37;;;3.20;99.90;;;;;;4968684;28;20736;-75
2020/12/07 03:24:23;;;;;;;125.53;71.47;;;3.20;99.90;;;;;;4968871;28;20522;-74
2020/12/07 03:26:49;;;;;;;121.87;67.67;;;3.20;99.90;;;;;;4969028;28;20479;-76
2020/12/07 03:29:17;;;;;;;114.53;64.60;;;3.30;99.90;;;;;;4969252;28;20462;-74
2020/12/07 03:31:43;;;;;;;136.33;71.30;;;3.30;99.90;;;;;;4970859;28;20455;-74
2020/12/07 03:34:13;;;;;;;104.27;63.50;;;3.30;99.90;;;;;;4967697;28;20832;-75
2020/12/07 03:36:41;;;;;;;107.60;57.20;;;3.40;99.90;;;;;;4966922;28;20486;-76
2020/12/07 03:39:08;;;;;;;122.00;70.10;;;3.40;99.90;;;;;;4968522;28;20468;-73
2020/12/07 03:41:35;;;;;;;130.80;69.30;;;3.40;99.90;;;;;;4968709;28;20865;-75
2020/12/07 03:44:01;;;;;;;112.13;67.30;;;3.40;99.90;;;;;;4969583;28;20482;-76
2020/12/07 03:46:29;;;;;;;101.17;65.07;;;3.40;99.90;;;;;;4969326;28;20475;-74
2020/12/07 03:48:55;;;;;;;105.03;63.90;;;3.50;99.90;;;;;;4968026;28;21009;-74
2020/12/07 03:51:22;;;;;;;117.63;64.40;;;3.50;99.90;;;;;;4968679;28;20460;-76
2020/12/07 03:53:48;;;;;;;96.80;61.73;;;3.40;99.90;;;;;;4968588;28;20479;-74
2020/12/07 03:56:15;;;;;;;97.30;59.53;;;3.50;99.90;;;;;;4969501;28;20466;-75
2020/12/07 03:58:41;;;;;;;114.97;64.80;;;3.50;99.90;;;;;;4968270;28;20466;-75
2020/12/07 04:01:10;;;;;;;87.33;55.70;;;3.50;99.90;;;;;;4968428;28;20469;-75
2020/12/07 04:03:38;;;;;;;104.13;60.73;;;3.40;99.90;;;;;;4966287;28;20515;-76
2020/12/07 04:06:09;;;;;;;100.03;59.70;;;3.40;99.90;;;;;;4968443;28;20470;-76
2020/12/07 04:08:36;;;;;;;116.13;65.73;;;3.40;99.90;;;;;;4968638;28;20817;-76
2020/12/07 04:11:03;;;;;;;112.10;63.13;;;3.30;99.90;;;;;;4968129;28;20459;-74
2020/12/07 04:13:30;;;;;;;112.00;63.60;;;3.30;99.90;;;;;;4970013;28;20462;-75
2020/12/07 04:15:57;;;;;;;107.90;64.83;;;3.30;99.90;;;;;;4968199;28;20463;-76
2020/12/07 04:18:23;;;;;;;112.03;61.73;;;3.30;99.90;;;;;;4968013;28;20456;-74
2020/12/07 04:20:50;;;;;;;102.17;62.03;;;3.30;99.90;;;;;;4968495;28;20466;-75
2020/12/07 04:23:16;;;;;;;107.80;60.00;;;3.30;99.90;;;;;;4967442;28;20470;-74
2020/12/07 04:25:43;;;;;;;113.03;64.37;;;3.30;99.90;;;;;;4964393;28;20475;-75
2020/12/07 04:28:09;;;;;;;121.77;65.83;;;3.30;99.90;;;;;;4969321;28;21373;-73
2020/12/07 04:30:40;;;;;;;101.77;63.43;;;3.30;99.90;;;;;;4972289;28;20596;-75
2020/12/07 04:33:07;;;;;;;110.33;62.77;;;3.30;99.90;;;;;;4968714;28;20462;-75
2020/12/07 04:35:33;;;;;;;110.07;62.10;;;3.20;99.90;;;;;;4967567;28;20474;-76
2020/12/07 04:38:01;;;;;;;114.03;66.07;;;3.20;99.90;;;;;;4969517;28;20471;-78
2020/12/07 04:40:29;;;;;;;109.00;64.80;;;3.20;99.90;;;;;;4969518;28;20466;-75
2020/12/07 04:42:56;;;;;;;88.20;59.10;;;3.20;99.90;;;;;;4967507;28;21016;-77
2020/12/07 04:45:24;;;;;;;108.17;65.00;;;3.20;99.90;;;;;;4967441;28;20605;-77
2020/12/07 04:47:52;;;;;;;112.43;63.47;;;3.10;99.90;;;;;;4967688;28;20462;-77
2020/12/07 04:50:20;;;;;;;92.67;59.03;;;3.10;99.90;;;;;;4967666;28;20454;-75
2020/12/07 04:52:49;;;;;;;92.63;58.93;;;3.00;99.90;;;;;;4969485;28;20924;-74
2020/12/07 04:55:17;;;;;;;103.20;64.10;;;3.10;99.90;;;;;;4966515;28;20841;-77
2020/12/07 04:57:44;;;;;;;101.40;63.90;;;3.10;99.90;;;;;;4967522;28;20463;-74
2020/12/07 05:00:10;;;;;;;110.50;63.60;;;3.00;99.90;;;;;;4968410;28;20474;-76
2020/12/07 05:02:38;;;;;;;102.87;66.97;;;3.00;99.90;;;;;;4969014;28;20469;-74
2020/12/07 05:05:05;;;;;;;102.73;61.27;;;3.00;99.90;;;;;;4960183;28;20535;-75
2020/12/07 05:07:33;;;;;;;102.57;67.43;;;3.10;99.90;;;;;;4963196;28;20463;-75
2020/12/07 05:10:02;;;;;;;109.40;67.77;;;3.00;99.90;;;;;;4965451;28;20452;-74
2020/12/07 05:12:39;;;;;;;119.43;69.60;;;3.00;99.90;;;;;;4967450;28;20504;-75
2020/12/07 05:15:10;;;;;;;127.23;72.13;;;2.90;99.90;;;;;;4965715;28;20549;-76
2020/12/07 05:17:37;;;;;;;95.57;63.07;;;3.00;99.90;;;;;;4967213;28;20573;-75
2020/12/07 05:20:05;;;;;;;120.10;70.90;;;3.00;99.90;;;;;;4967611;28;20475;-77
2020/12/07 05:22:31;;;;;;;114.97;68.10;;;3.00;99.90;;;;;;4967381;28;21001;-76
2020/12/07 05:24:58;;;;;;;112.20;68.43;;;3.00;99.90;;;;;;4967022;28;20585;-75
2020/12/07 05:27:27;;;;;;;113.17;69.67;;;3.10;99.90;;;;;;4960370;28;20491;-77
2020/12/07 05:30:08;;;;;;;112.57;72.50;;;3.10;99.90;;;;;;4966671;28;20865;-75
2020/12/07 05:32:36;;;;;;;108.27;65.87;;;3.10;99.90;;;;;;4965785;28;20458;-75
2020/12/07 05:35:04;;;;;;;110.70;69.97;;;3.10;99.90;;;;;;4967302;28;20481;-76
2020/12/07 05:37:32;;;;;;;76.97;51.80;;;3.00;99.90;;;;;;4964594;28;20486;-75
2020/12/07 05:40:00;;;;;;;95.13;61.00;;;3.10;99.90;;;;;;4964473;28;20476;-76
2020/12/07 05:42:28;;;;;;;101.77;66.50;;;3.10;99.90;;;;;;4966326;28;20474;-74
2020/12/07 05:44:57;;;;;;;98.73;60.40;;;3.00;99.90;;;;;;4966286;28;20495;-74
2020/12/07 05:47:24;;;;;;;108.20;63.27;;;3.00;99.90;;;;;;4966520;28;20817;-73
2020/12/07 05:49:52;;;;;;;114.57;65.37;;;3.00;99.90;;;;;;4965197;28;21325;-75
2020/12/07 05:52:26;;;;;;;114.93;70.03;;;3.00;99.90;;;;;;4967576;28;20467;-74
2020/12/07 05:54:55;;;;;;;115.97;71.03;;;3.10;99.90;;;;;;4962883;28;20804;-75
2020/12/07 05:57:26;;;;;;;128.73;75.37;;;2.90;99.90;;;;;;4965729;28;20541;-74
2020/12/07 05:59:55;;;;;;;121.13;73.57;;;2.90;99.90;;;;;;4966123;28;20463;-76
2020/12/07 06:02:24;;;;;;;129.60;72.57;;;3.00;99.90;;;;;;4971083;28;20473;-74
2020/12/07 06:04:52;;;;;;;126.13;70.47;;;2.90;99.90;;;;;;4966665;28;20549;-76
2020/12/07 06:07:24;;;;;;;124.83;71.07;;;3.00;99.90;;;;;;4967396;28;20470;-75
2020/12/07 06:09:51;;;;;;;125.33;75.27;;;3.00;99.90;;;;;;4967029;28;20976;-75
2020/12/07 06:12:23;;;;;;;139.27;75.70;;;2.90;99.90;;;;;;4966363;28;20534;-77
2020/12/07 06:14:51;;;;;;;130.30;74.00;;;2.90;99.90;;;;;;4962182;28;20463;-78
2020/12/07 06:17:24;;;;;;;137.93;78.60;;;3.00;99.90;;;;;;4970940;28;20530;-77
2020/12/07 06:19:51;;;;;;;130.07;74.50;;;3.00;99.90;;;;;;4965556;28;20471;-74
2020/12/07 06:22:21;;;;;;;114.57;69.03;;;3.00;99.90;;;;;;4966588;28;20470;-75
2020/12/07 06:24:49;;;;;;;121.17;66.83;;;3.10;99.90;;;;;;4966757;28;20556;-76
2020/12/07 06:27:16;;;;;;;97.40;63.30;;;3.10;99.90;;;;;;4965601;28;20482;-75
2020/12/07 06:29:57;;;;;;;116.20;64.07;;;3.10;99.90;;;;;;4966166;28;20534;-75
2020/12/07 06:32:43;;;;;;;110.87;65.30;;;3.00;99.90;;;;;;4965897;28;20553;-75
2020/12/07 06:35:10;;;;;;;102.70;63.03;;;3.10;99.90;;;;;;4959149;28;20467;-76
2020/12/07 06:37:43;;;;;;;99.70;57.97;;;3.00;99.90;;;;;;4955987;28;20479;-75
2020/12/07 06:40:09;;;;;;;112.00;62.70;;;3.00;99.90;;;;;;4966870;28;20969;-75
2020/12/07 06:42:40;;;;;;;97.67;62.43;;;3.00;99.90;;;;;;4966608;28;20465;-76
2020/12/07 06:45:09;;;;;;;102.20;63.53;;;3.00;99.90;;;;;;4965974;28;21213;-75
2020/12/07 06:47:41;;;;;;;99.07;56.60;;;3.00;99.90;;;;;;4967424;28;20518;-77
2020/12/07 06:50:15;;;;;;;105.63;60.73;;;3.00;99.90;;;;;;4965848;28;20873;-77
2020/12/07 06:52:44;;;;;;;98.83;62.13;;;3.10;99.90;;;;;;4965833;28;20562;-76
2020/12/07 06:55:12;;;;;;;98.17;65.70;;;3.10;99.90;;;;;;4966179;28;20582;-76
2020/12/07 06:57:42;;;;;;;112.80;65.17;;;3.10;99.90;;;;;;4966966;28;20459;-74
2020/12/07 07:00:14;;;;;;;138.37;76.50;;;3.10;99.90;;;;;;4964753;28;20739;-75
2020/12/07 07:02:43;;;;;;;122.17;66.67;;;3.10;99.90;;;;;;4961379;28;20474;-76
2020/12/07 07:05:10;;;;;;;90.97;54.17;;;3.10;99.90;;;;;;4965383;28;20746;-77
2020/12/07 07:07:37;;;;;;;103.47;56.87;;;3.10;99.90;;;;;;4964951;28;20529;-76
2020/12/07 07:10:05;;;;;;;104.60;61.20;;;3.10;99.90;;;;;;4966005;28;20458;-76
2020/12/07 07:12:31;;;;;;;98.03;60.77;;;3.00;99.90;;;;;;4966598;28;20470;-76
2020/12/07 07:14:58;;;;;;;60.53;44.77;;;3.10;99.90;;;;;;4964769;28;20466;-75
2020/12/07 07:17:27;;;;;;;98.77;61.20;;;3.10;99.90;;;;;;4970153;28;20956;-75
2020/12/07 07:19:54;;;;;;;99.20;62.23;;;3.10;99.90;;;;;;4961223;28;20462;-77
2020/12/07 07:22:22;;;;;;;106.60;61.50;;;3.00;99.90;;;;;;4960659;28;20970;-75
2020/12/07 07:24:59;;;;;;;104.70;62.93;;;3.10;99.90;;;;;;4965632;28;20505;-75
2020/12/07 07:30:13;;;;;;;94.60;57.77;;;3.10;99.90;;;;;;4967101;28;20453;-76
2020/12/07 07:32:40;;;;;;;101.60;60.50;;;3.10;99.90;;;;;;4964160;28;20578;-75
2020/12/07 07:35:09;;;;;;;73.47;50.77;;;3.10;99.90;;;;;;4962853;28;20865;-75
2020/12/07 07:37:36;;;;;;;108.17;57.60;;;3.10;99.90;;;;;;4965017;28;21063;-76
2020/12/07 07:40:05;;;;;;;94.73;58.17;;;3.00;99.90;;;;;;4962978;28;20820;-74
2020/12/07 07:42:34;;;;;;;88.30;56.37;;;3.10;99.90;;;;;;4962637;28;20476;-77
2020/12/07 07:45:02;;;;;;;93.77;56.30;;;3.00;99.90;;;;;;4964521;28;20516;-75
2020/12/07 07:47:32;;;;;;;57.67;42.90;;;3.00;99.90;;;;;;4970439;28;20463;-75
2020/12/07 07:50:19;;;;;;;88.40;55.47;;;3.00;99.90;;;;;;4964855;28;20473;-76
2020/12/07 08:18:18;;;;;;;73.37;50.60;;;3.30;99.90;;;;;;4967778;28;20469;-75
2020/12/07 08:20:54;;;;;;;82.57;53.30;;;3.20;99.90;;;;;;4969424;28;20553;-75
2020/12/07 08:23:27;;;;;;;88.50;54.90;;;3.20;99.90;;;;;;4966130;28;20498;-77
2020/12/07 08:25:54;;;;;;;85.70;53.63;;;3.30;99.90;;;;;;4966721;28;21060;-74
2020/12/07 08:28:27;;;;;;;77.97;51.00;;;3.30;99.90;;;;;;4960338;28;20542;-76
2020/12/07 08:31:04;;;;;;;77.53;50.50;;;3.30;99.90;;;;;;4932960;28;20874;-76
2020/12/07 08:33:32;;;;;;;86.03;54.23;;;3.30;99.90;;;;;;4949870;28;20474;-75
2020/12/07 08:36:00;;;;;;;96.43;60.53;;;3.40;99.90;;;;;;4958489;28;20491;-76
2020/12/07 08:38:28;;;;;;;90.47;56.53;;;3.40;99.90;;;;;;4954876;28;20459;-76
2020/12/07 08:41:06;;;;;;;99.43;59.27;;;3.40;99.90;;;;;;4957013;28;20808;-73
2020/12/07 08:43:33;;;;;;;82.90;52.00;;;3.50;99.90;;;;;;4965059;28;20749;-76
2020/12/07 08:45:59;;;;;;;89.37;55.30;;;3.50;99.90;;;;;;4963386;28;21099;-75
2020/12/07 08:48:25;;;;;;;89.23;51.03;;;3.50;99.90;;;;;;4963708;28;20455;-74
2020/12/07 08:50:54;;;;;;;78.80;51.30;;;3.40;99.90;;;;;;4965118;28;20462;-76
2020/12/07 08:53:21;;;;;;;83.63;50.93;;;3.40;99.90;;;;;;4967246;28;20471;-76
2020/12/07 08:55:48;;;;;;;86.63;54.17;;;3.40;99.90;;;;;;4964228;28;20752;-75
2020/12/07 08:58:15;;;;;;;72.87;50.50;;;3.50;99.90;;;;;;4962583;28;20558;-74
2020/12/07 09:00:42;;;;;;;80.83;54.20;;;3.60;99.90;;;;;;4960699;28;20475;-76
2020/12/07 09:03:09;;;;;;;86.70;53.20;;;3.60;99.90;;;;;;4961284;28;20468;-75
2020/12/07 09:05:37;;;;;;;91.33;58.67;;;3.60;99.90;;;;;;4964061;28;20560;-75
2020/12/07 09:08:04;;;;;;;85.37;56.23;;;3.60;99.90;;;;;;4965149;28;20468;-75
2020/12/07 09:10:31;;;;;;;90.33;56.50;;;3.70;99.90;;;;;;4966573;28;20467;-74
2020/12/07 09:12:57;;;;;;;86.23;51.03;;;3.70;99.90;;;;;;4962303;28;20521;-75
2020/12/07 09:15:25;;;;;;;93.80;55.50;;;3.70;99.90;;;;;;4964832;28;20477;-75
2020/12/07 09:17:51;;;;;;;75.70;49.10;;;3.80;99.90;;;;;;4961845;28;20750;-77
2020/12/07 09:20:17;;;;;;;83.33;50.53;;;3.80;99.90;;;;;;4966403;28;20892;-76
2020/12/07 09:22:43;;;;;;;69.60;48.80;;;3.70;99.90;;;;;;4967256;28;20470;-76
2020/12/07 09:25:10;;;;;;;83.00;51.00;;;3.70;99.90;;;;;;4966298;28;20495;-75
2020/12/07 09:27:36;;;;;;;68.10;48.60;;;3.80;99.90;;;;;;4958879;28;20491;-76
2020/12/07 09:30:03;;;;;;;85.27;51.77;;;3.70;99.90;;;;;;4960996;28;20477;-75
2020/12/07 09:32:31;;;;;;;84.07;50.27;;;3.80;99.90;;;;;;4964364;28;20498;-76
2020/12/07 09:34:57;;;;;;;83.60;52.17;;;3.90;99.90;;;;;;4964807;28;20455;-76
2020/12/07 09:37:24;;;;;;;82.30;50.53;;;3.90;99.90;;;;;;4966073;28;20491;-74
2020/12/07 09:39:51;;;;;;;71.90;47.03;;;3.70;99.90;;;;;;4960955;28;20962;-75
2020/12/07 09:42:17;;;;;;;85.83;51.70;;;3.70;99.90;;;;;;4965149;28;20467;-75
2020/12/07 09:44:43;;;;;;;91.47;51.53;;;3.80;99.90;;;;;;4961568;28;20494;-76
2020/12/07 09:47:10;;;;;;;71.93;50.40;;;3.90;99.90;;;;;;4963120;28;20829;-74
2020/12/07 09:49:38;;;;;;;80.23;50.27;;;4.00;99.90;;;;;;4966386;28;20467;-77
2020/12/07 09:52:06;;;;;;;79.03;50.40;;;4.00;99.90;;;;;;4964300;28;20471;-74
2020/12/07 09:54:38;;;;;;;83.50;53.10;;;4.00;99.90;;;;;;4966514;28;20594;-77
2020/12/07 09:57:05;;;;;;;79.47;50.10;;;4.10;99.90;;;;;;4966854;28;20589;-75
2020/12/07 09:59:32;;;;;;;83.80;50.80;;;4.10;99.90;;;;;;4967367;28;20472;-76
2020/12/07 10:01:59;;;;;;;66.07;49.00;;;4.20;99.90;;;;;;4966985;28;20470;-74
2020/12/07 10:04:26;;;;;;;97.87;50.13;;;4.20;99.90;;;;;;4966508;28;20475;-76
2020/12/07 10:06:53;;;;;;;81.30;49.73;;;4.10;99.90;;;;;;4959109;28;21028;-76
2020/12/07 10:09:20;;;;;;;67.90;48.63;;;4.20;99.90;;;;;;4963800;28;20474;-76
2020/12/07 10:11:47;;;;;;;77.30;48.43;;;4.20;99.90;;;;;;4965181;28;20519;-76
2020/12/07 10:14:14;;;;;;;65.90;48.53;;;4.10;99.90;;;;;;4966134;28;20491;-74
2020/12/07 10:16:42;;;;;;;74.77;48.20;;;4.30;99.90;;;;;;4971920;28;20513;-76
2020/12/07 10:19:09;;;;;;;65.77;47.93;;;4.30;99.90;;;;;;4966063;28;20459;-75
2020/12/07 10:21:37;;;;;;;75.90;47.20;;;4.30;99.90;;;;;;4964484;28;20467;-76
2020/12/07 10:24:05;;;;;;;63.87;43.93;;;4.30;99.90;;;;;;4966009;28;20463;-77
2020/12/07 10:26:31;;;;;;;65.70;45.00;;;4.40;99.90;;;;;;4964400;28;20483;-75
2020/12/07 10:28:58;;;;;;;65.13;43.13;;;4.30;99.90;;;;;;4962377;28;20467;-75
2020/12/07 10:31:25;;;;;;;64.83;45.77;;;4.30;99.90;;;;;;4965394;28;20464;-76
2020/12/07 10:33:52;;;;;;;64.43;45.43;;;4.50;99.90;;;;;;4966231;28;20463;-76
2020/12/07 10:36:19;;;;;;;71.60;46.30;;;4.40;99.90;;;;;;4966228;28;20515;-74
2020/12/07 10:38:47;;;;;;;63.13;45.60;;;4.40;99.90;;;;;;4965985;28;21306;-76
2020/12/07 10:41:15;;;;;;;73.37;45.93;;;4.40;99.90;;;;;;4966480;28;20462;-74
2020/12/07 10:43:42;;;;;;;67.13;45.10;;;4.50;99.90;;;;;;4967787;28;20490;-76
2020/12/07 10:46:10;;;;;;;62.07;44.87;;;4.50;99.90;;;;;;4967905;28;20498;-77
2020/12/07 10:48:37;;;;;;;70.23;44.57;;;4.40;99.90;;;;;;4965764;28;20965;-75
2020/12/07 10:51:03;;;;;;;63.73;44.33;;;4.50;99.90;;;;;;4965990;28;20455;-76
2020/12/07 10:53:30;;;;;;;64.80;46.37;;;4.40;99.90;;;;;;4966916;28;20479;-75
2020/12/07 10:55:56;;;;;;;65.53;45.50;;;4.40;99.90;;;;;;4967587;28;20973;-75
2020/12/07 10:58:23;;;;;;;73.53;45.13;;;4.40;99.90;;;;;;4965502;28;20482;-75
2020/12/07 11:00:51;;;;;;;60.83;44.80;;;4.40;99.90;;;;;;4965761;28;20475;-76
2020/12/07 11:03:18;;;;;;;67.50;44.20;;;4.50;99.90;;;;;;4965790;28;20461;-77
2020/12/07 11:05:44;;;;;;;62.47;45.80;;;4.60;99.90;;;;;;4967684;28;20491;-76
2020/12/07 11:08:18;;;;;;;66.43;43.87;;;4.50;99.90;;;;;;4965433;28;20977;-77
2020/12/07 11:10:44;;;;;;;56.23;42.43;;;4.50;99.90;;;;;;4964375;28;20467;-73
2020/12/07 11:13:22;;;;;;;62.47;43.07;;;4.60;99.90;;;;;;4966500;28;20799;-76
2020/12/07 11:15:49;;;;;;;59.33;42.17;;;4.60;99.90;;;;;;4966794;28;20477;-77
2020/12/07 11:18:16;;;;;;;61.83;43.03;;;4.60;99.90;;;;;;4971052;28;20463;-75
2020/12/07 11:20:42;;;;;;;56.10;40.57;;;4.60;99.90;;;;;;4969468;28;20462;-75
2020/12/07 11:23:08;;;;;;;56.00;38.70;;;4.60;99.90;;;;;;4969291;28;20559;-75
2020/12/07 11:25:35;;;;;;;56.17;41.10;;;4.70;99.90;;;;;;4969250;28;20502;-75
2020/12/07 11:28:02;;;;;;;51.60;42.97;;;4.70;99.90;;;;;;4970235;28;20487;-74
2020/12/07 11:30:28;;;;;;;57.47;41.30;;;4.80;99.90;;;;;;4970042;28;20470;-75
2020/12/07 11:32:56;;;;;;;60.63;41.83;;;4.80;99.90;;;;;;4968568;28;20824;-75
2020/12/07 11:35:22;;;;;;;54.37;42.43;;;4.90;99.90;;;;;;4969042;28;20459;-74
2020/12/07 11:37:54;;;;;;;55.63;40.60;;;4.90;99.90;;;;;;4966821;28;20474;-74
2020/12/07 11:40:30;;;;;;;50.77;42.33;;;5.00;99.90;;;;;;4968608;28;20563;-75
2020/12/07 11:43:05;;;;;;;55.37;42.87;;;5.00;99.90;;;;;;4970134;28;20993;-74
2020/12/07 11:45:31;;;;;;;56.37;43.00;;;5.10;99.90;;;;;;4972777;28;20999;-76
2020/12/07 11:47:59;;;;;;;60.77;41.93;;;4.90;99.90;;;;;;4969528;28;20459;-74
2020/12/07 11:50:25;;;;;;;57.40;40.97;;;5.00;99.90;;;;;;4969272;28;20467;-74
2020/12/07 11:52:52;;;;;;;53.57;41.60;;;5.10;99.90;;;;;;4969169;28;20459;-75
2020/12/07 11:55:18;;;;;;;52.70;39.90;;;5.10;99.90;;;;;;4969930;28;20558;-75
2020/12/07 11:57:45;;;;;;;50.43;40.73;;;5.20;99.90;;;;;;4970360;28;20467;-75
2020/12/07 12:00:12;;;;;;;55.33;40.70;;;5.20;99.90;;;;;;4968703;28;20470;-76
2020/12/07 12:02:39;;;;;;;53.27;39.90;;;5.20;99.90;;;;;;4968123;28;20859;-75
2020/12/07 12:05:06;;;;;;;50.27;40.30;;;5.20;99.90;;;;;;4967128;28;20487;-76
2020/12/07 12:07:33;;;;;;;51.47;39.80;;;5.20;99.90;;;;;;4971034;28;20466;-77
2020/12/07 12:09:59;;;;;;;52.77;41.87;;;5.30;99.90;;;;;;4968507;28;20467;-74
2020/12/07 12:12:26;;;;;;;48.57;41.30;;;5.40;99.90;;;;;;4968653;28;20720;-75
2020/12/07 12:14:52;;;;;;;52.70;41.60;;;5.30;99.90;;;;;;4968426;28;20474;-77
2020/12/07 12:17:18;;;;;;;55.67;41.73;;;5.30;99.90;;;;;;4971194;28;20444;-75
2020/12/07 12:19:45;;;;;;;47.53;39.17;;;5.40;99.90;;;;;;4969756;28;20487;-78
2020/12/07 12:22:12;;;;;;;51.70;41.37;;;5.50;99.90;;;;;;4968460;28;20471;-75
2020/12/07 12:24:39;;;;;;;50.50;38.83;;;5.50;99.90;;;;;;4968010;28;20479;-77
2020/12/07 12:27:05;;;;;;;47.13;39.27;;;5.60;99.90;;;;;;4966589;28;20479;-77
2020/12/07 12:29:32;;;;;;;47.40;40.53;;;5.60;99.90;;;;;;4963003;28;20486;-76
2020/12/07 12:31:58;;;;;;;48.83;41.10;;;5.60;99.90;;;;;;4969775;28;20485;-75
2020/12/07 12:34:24;;;;;;;46.77;40.63;;;5.70;99.90;;;;;;4968476;28;20463;-77
2020/12/07 12:36:51;;;;;;;47.00;40.33;;;5.70;99.90;;;;;;4966923;28;20491;-77
2020/12/07 12:39:18;;;;;;;48.00;40.50;;;5.60;99.90;;;;;;4968272;28;20459;-76
2020/12/07 12:41:44;;;;;;;51.63;41.10;;;5.60;99.90;;;;;;4968670;28;20475;-76
2020/12/07 12:44:12;;;;;;;47.23;42.13;;;5.70;99.90;;;;;;4968910;28;20499;-77
2020/12/07 12:46:39;;;;;;;57.23;43.37;;;5.70;99.90;;;;;;4968500;28;20500;-75
2020/12/07 12:49:06;;;;;;;53.67;44.10;;;5.90;99.90;;;;;;4966721;28;20464;-76
2020/12/07 12:51:33;;;;;;;51.80;41.90;;;5.90;99.90;;;;;;4963892;28;20471;-77
2020/12/07 12:54:00;;;;;;;51.00;43.30;;;5.90;99.90;;;;;;4968406;28;20828;-75
2020/12/07 12:56:28;;;;;;;55.80;44.03;;;6.00;99.90;;;;;;4969365;28;20470;-75
2020/12/07 12:58:55;;;;;;;51.43;41.23;;;5.90;99.90;;;;;;4968779;28;20520;-77
2020/12/07 13:01:22;;;;;;;52.50;41.47;;;5.80;99.90;;;;;;4967688;28;20475;-77
2020/12/07 13:03:48;;;;;;;47.17;41.27;;;5.80;99.90;;;;;;4967900;28;20463;-77